Terminal Aerodrome Forecast
Issued by NWS

Home | Current Version | Previous Version | Text Only | Print | Product List | Glossary On
Versions: 1 2 3 4 5 6 7 8 9 10 11 12
993
FTUS46 KSEW 262320
TAFPAE
TAF
KPAE 262320Z 2700/2724 30005KT P6SM SCT250
     FM270500 16006KT P6SM SCT250
     FM271400 17009KT 5SM BR OVC015
     FM271900 18010KT P6SM BKN025
     FM272200 19010KT P6SM BKN030 BKN100=

USA.gov is the U.S. government's official web portal to all federal, state and local government web resources and services.